Terminal Aerodrome Forecast
Issued by NWS

Home | Current Version | Previous Version | Text Only | Print | Product List | Glossary On
Versions: 1 2 3 4 5 6 7 8 9 10 11 12 13
172
FTUS44 KJAN 212320
TAFHKS
TAF
KHKS 212320Z 2200/2224 14010KT P6SM -SHRA VCTS BKN040CB
     FM220200 14008KT P6SM BKN100
     FM221000 15009KT P6SM BKN025
     FM221200 14008KT P6SM VCTS BKN015CB
     FM221700 17010KT 6SM -TSRA OVC025CB
     FM222000 18008KT 6SM -RA OVC050=

USA.gov is the U.S. government's official web portal to all federal, state and local government web resources and services.